METAR Data
IDs: Format: Raw Decoded Include TAF

Data at: 1554 UTC 24 Aug 2019

PAJC 241457Z AUTO 22008KT 10SM CLR 13/08 A2981 RMK AO2 SLP094 T01280078 53006
PAJC 241357Z AUTO 25008KT 10SM CLR 12/08 A2980 RMK AO2 SLP092 T01220078
PAJC 241257Z AUTO 21008KT 10SM CLR 13/08 A2979 RMK AO2 SLP089 T01280083
PAJC 241157Z AUTO 22008KT 10SM CLR 13/08 A2979 RMK AO2 SLP088 T01280083 10144 20117 56000
PAJC 241057Z AUTO 22009KT 10SM FEW032 13/08 A2979 RMK AO2 SLP088 T01280083
PAJC 240757Z AUTO 25010KT 10SM CLR 13/07 A2978 RMK AO2 SLP086 T01330072 401940106
PAJC 240657Z AUTO 28007KT 10SM BKN037 14/08 A2977 RMK AO2 SLP083 T01390083
PAJC 240557Z AUTO 27006KT 10SM SCT041 14/09 A2976 RMK AO2 SLP079 T01440089 10194 20144 53010
PAJC 240457Z AUTO 28006KT 10SM CLR 15/08 A2975 RMK AO2 SLP074 T01500083
PAJC 240357Z AUTO 26007KT 10SM CLR 17/08 A2974 RMK AO2 SLP071 T01670083
PAJC 240257Z AUTO 24010KT 10SM OVC050 18/08 A2973 RMK AO2 SLP069 T01780083 55003
PAJC 240157Z AUTO 24009KT 10SM BKN050 17/08 A2973 RMK AO2 SLP069 T01720078
PAJC 240057Z AUTO VRB04KT 10SM SCT050 19/08 A2974 RMK AO2 SLP072 T01890078
PAJC 232357Z AUTO 28005KT 10SM FEW049 18/08 A2974 RMK AO2 SLP073 T01780078 10189 20144 55003
PAJC 232257Z AUTO VRB03KT 10SM FEW047 18/09 A2974 RMK AO2 SLP072 T01780089
PAJC 232157Z AUTO 30006KT 9SM BKN043 BKN050 18/09 A2975 RMK AO2 SLP073 T01830089
PAJC 232057Z AUTO 28005KT 10SM BKN037 17/09 A2976 RMK AO2 SLP076 T01720089 57001
PAJC 231957Z AUTO 23006KT 10SM FEW031 17/09 A2976 RMK AO2 SLP077 T01670089
PAJC 231857Z AUTO 24006KT 10SM CLR 16/09 A2976 RMK AO2 SLP077 T01560089
PAJC 231757Z AUTO 24007KT 10SM CLR 14/09 A2976 RMK AO2 SLP077 T01440089 10144 20106 53001
PAJC 231657Z AUTO 22010KT 10SM CLR 14/09 A2975 RMK AO2 SLP075 T01390089
PAJC 231457Z AUTO 19003KT 10SM CLR 12/08 A2975 RMK AO2 SLP076 T01220078 53003
PAJC 231357Z AUTO 22007KT 10SM CLR 12/08 A2975 RMK AO2 SLP075 T01170083
PAJC 231257Z AUTO 23005KT 10SM CLR 12/08 A2974 RMK AO2 SLP073 T01220083
PAJC 231157Z AUTO 23003KT 10SM CLR 13/09 A2974 RMK AO2 SLP072 T01330089 10156 20128 50001
PAJC 230957Z AUTO 25007KT 10SM CLR 14/09 A2975 RMK AO2 SLP074 T01390089
PAJC 230857Z AUTO 24009KT 10SM CLR 14/09 A2974 RMK AO2 SLP071 T01440089 51013
PAJC 230757Z AUTO 26006KT 10SM CLR 14/08 A2973 RMK AO2 SLP068 T01440083 401830111
PAJC 230657Z AUTO 27010G17KT 10SM CLR 14/08 A2972 RMK AO2 SLP064 T01440078
PAJC 230557Z AUTO 25012KT 10SM CLR 16/08 A2970 RMK AO2 SLP058 T01560083 10183 20150 53008
PAJC 230457Z AUTO 25011G14KT 10SM CLR 17/09 A2969 RMK AO2 SLP054 T01670089
PAJC 230357Z AUTO VRB06KT 10SM CLR 17/08 A2968 RMK AO2 SLP051 T01720078